Time;durP1;ratioP1;P1;durP2;ratioP2;P2;SDS_P1;SDS_P2;PMS_P1;PMS_P2;Temp;Humidity;BMP_temperature;BMP_pressure;BME280_temperature;BME280_humidity;BME280_pressure;Samples;Min_cycle;Max_cycle;Signal;HPM_P1;HPM_P2
2021/12/22 00:00:16;;;;;;;16.10;12.77;;;-0.30;99.90;;;;;;5040094;28;20236;-52
2021/12/22 00:02:48;;;;;;;16.35;11.88;;;-0.30;99.90;;;;;;5040096;28;20195;-52
2021/12/22 00:05:26;;;;;;;18.67;13.32;;;-0.10;99.90;;;;;;5040558;28;20208;-54
2021/12/22 00:07:54;;;;;;;16.67;12.27;;;-0.20;99.90;;;;;;5039923;28;20418;-52
2021/12/22 00:10:22;;;;;;;18.02;13.77;;;-0.20;99.90;;;;;;5040392;28;20224;-51
2021/12/22 00:12:51;;;;;;;19.77;13.50;;;-0.20;99.90;;;;;;5040565;28;20204;-52
2021/12/22 00:15:18;;;;;;;24.83;14.57;;;-0.10;99.90;;;;;;5040402;28;20238;-52
2021/12/22 00:17:46;;;;;;;28.13;16.08;;;-0.10;99.90;;;;;;5040116;28;20284;-51
2021/12/22 00:20:14;;;;;;;28.73;15.23;;;-0.10;99.90;;;;;;5039965;28;20270;-54
2021/12/22 00:22:42;;;;;;;22.48;14.75;;;-0.30;99.90;;;;;;5042799;28;20499;-49
2021/12/22 00:25:11;;;;;;;18.52;13.50;;;-0.30;99.90;;;;;;5044245;28;20561;-51
2021/12/22 00:27:39;;;;;;;28.88;17.52;;;-0.40;99.90;;;;;;5044596;28;20348;-49
2021/12/22 00:30:07;;;;;;;21.63;15.73;;;-0.40;99.90;;;;;;5044357;28;20385;-50
2021/12/22 00:32:36;;;;;;;23.23;14.60;;;-0.30;99.90;;;;;;5044836;28;20254;-52
2021/12/22 00:35:05;;;;;;;23.92;14.70;;;-0.50;99.90;;;;;;5046772;28;20234;-53
2021/12/22 00:37:34;;;;;;;22.73;13.68;;;-0.50;99.90;;;;;;5050517;28;20200;-54
2021/12/22 00:40:03;;;;;;;19.65;14.75;;;-0.60;99.90;;;;;;5049463;28;20299;-51
2021/12/22 00:42:30;;;;;;;25.25;14.85;;;-0.60;99.90;;;;;;5047090;28;20577;-54
2021/12/22 00:44:57;;;;;;;21.17;14.00;;;-0.70;99.90;;;;;;5043961;28;20196;-50
2021/12/22 00:47:28;;;;;;;24.38;12.32;;;-0.70;99.90;;;;;;5044028;28;20203;-49
2021/12/22 00:49:56;;;;;;;22.65;16.15;;;-0.70;99.90;;;;;;5043877;28;20287;-50
2021/12/22 00:52:24;;;;;;;17.88;13.35;;;-0.70;99.90;;;;;;5044103;28;20196;-49
2021/12/22 00:54:51;;;;;;;24.33;16.58;;;-0.60;99.90;;;;;;5045615;28;20414;-50
2021/12/22 00:57:19;;;;;;;19.48;13.65;;;-0.60;99.90;;;;;;5026146;28;20196;-51
2021/12/22 00:59:47;;;;;;;21.70;15.38;;;-0.50;99.90;;;;;;5043655;28;20232;-52
2021/12/22 01:02:18;;;;;;;24.67;14.52;;;-0.50;99.90;;;;;;5043793;28;20224;-51
2021/12/22 01:04:46;;;;;;;20.63;13.38;;;-0.40;99.90;;;;;;5044166;28;20387;-50
2021/12/22 01:07:14;;;;;;;24.00;13.85;;;-0.40;99.90;;;;;;5044835;28;20250;-49
2021/12/22 01:09:42;;;;;;;24.38;15.10;;;-0.40;99.90;;;;;;5045075;28;20688;-52
2021/12/22 01:12:11;;;;;;;22.90;14.75;;;-0.60;99.90;;;;;;5043310;28;20216;-50
2021/12/22 01:14:39;;;;;;;19.58;13.35;;;-0.60;99.90;;;;;;5043645;28;20200;-49
2021/12/22 01:17:10;;;;;;;17.05;13.27;;;-0.60;99.90;;;;;;5042899;28;20254;-52
2021/12/22 01:20:01;;;;;;;16.70;11.60;;;-0.60;99.90;;;;;;5043165;28;20224;-53
2021/12/22 01:22:46;;;;;;;21.27;13.27;;;-0.70;99.90;;;;;;5042889;28;20197;-49
2021/12/22 01:25:18;;;;;;;14.98;12.23;;;-0.60;99.90;;;;;;5043167;28;20226;-54
2021/12/22 01:27:45;;;;;;;22.15;13.50;;;-0.60;99.90;;;;;;5042760;28;20200;-50
2021/12/22 01:30:24;;;;;;;16.23;10.73;;;-0.60;99.90;;;;;;5043384;28;20220;-49
2021/12/22 01:32:54;;;;;;;17.27;12.13;;;-0.60;99.90;;;;;;5042745;28;20200;-52
2021/12/22 01:35:26;;;;;;;16.48;11.18;;;-0.60;99.90;;;;;;5043159;28;20541;-52
2021/12/22 01:37:53;;;;;;;17.70;12.07;;;-0.60;99.90;;;;;;5042749;28;20196;-49
2021/12/22 01:40:22;;;;;;;21.83;12.98;;;-0.50;99.90;;;;;;5042659;28;20228;-50
2021/12/22 01:42:50;;;;;;;19.40;12.88;;;-0.40;99.90;;;;;;5042312;28;20204;-53
2021/12/22 01:46:08;;;;;;;19.23;11.25;;;-0.30;99.90;;;;;;5043027;28;20203;-52
2021/12/22 01:51:38;;;;;;;15.68;12.88;;;-0.30;99.90;;;;;;5043319;28;20208;-51
2021/12/22 01:54:21;;;;;;;18.45;10.52;;;-0.40;99.90;;;;;;5042396;28;20215;-51
2021/12/22 01:56:50;;;;;;;18.58;12.25;;;-0.30;99.90;;;;;;5042625;28;20200;-50
2021/12/22 01:59:20;;;;;;;18.02;12.05;;;-0.70;99.90;;;;;;5042247;28;20338;-50
2021/12/22 02:01:48;;;;;;;15.13;11.88;;;-0.80;99.90;;;;;;5042411;28;20307;-48
2021/12/22 02:04:15;;;;;;;16.00;11.85;;;-0.80;99.90;;;;;;5042395;28;20196;-51
2021/12/22 02:06:46;;;;;;;17.50;11.25;;;-0.90;99.90;;;;;;5042604;28;20205;-50
2021/12/22 02:11:55;;;;;;;18.17;12.20;;;-0.90;99.90;;;;;;5042252;28;20204;-51
2021/12/22 02:14:22;;;;;;;14.15;10.68;;;-0.90;99.90;;;;;;5041993;28;20544;-49
2021/12/22 02:16:50;;;;;;;26.70;14.30;;;-1.10;99.90;;;;;;5041940;28;20208;-51
2021/12/22 02:19:17;;;;;;;17.50;11.57;;;-1.00;99.90;;;;;;5041799;28;20408;-51
2021/12/22 02:21:51;;;;;;;22.25;15.52;;;-1.00;99.90;;;;;;5041996;28;20298;-50
2021/12/22 02:24:18;;;;;;;23.55;13.00;;;-1.10;99.90;;;;;;5042175;28;20211;-51
2021/12/22 02:27:00;;;;;;;18.13;11.57;;;-1.10;99.90;;;;;;5041875;28;20372;-50
2021/12/22 02:29:35;;;;;;;18.65;13.88;;;-1.00;99.90;;;;;;5042084;28;20208;-49
2021/12/22 02:32:08;;;;;;;16.33;11.15;;;-1.00;99.90;;;;;;5041906;28;20394;-49
2021/12/22 02:34:44;;;;;;;20.55;11.23;;;-0.90;99.90;;;;;;5024646;28;20254;-49
2021/12/22 02:37:16;;;;;;;14.43;11.18;;;-0.90;99.90;;;;;;5043383;28;20208;-49
2021/12/22 02:39:50;;;;;;;21.00;12.20;;;-0.90;99.90;;;;;;5042071;28;20224;-49
2021/12/22 02:42:22;;;;;;;15.43;10.82;;;-0.90;99.90;;;;;;5041382;28;20224;-48
2021/12/22 02:44:49;;;;;;;16.90;10.90;;;-0.90;99.90;;;;;;5041124;28;20243;-51
2021/12/22 02:47:19;;;;;;;18.35;12.48;;;-0.90;99.90;;;;;;5041466;28;20267;-50
2021/12/22 02:49:47;;;;;;;13.65;10.05;;;-0.90;99.90;;;;;;5041449;28;20246;-49
2021/12/22 02:52:16;;;;;;;16.58;11.02;;;-0.80;99.90;;;;;;5041203;28;20200;-48
2021/12/22 02:54:51;;;;;;;16.50;10.57;;;-0.80;99.90;;;;;;5041619;28;20247;-50
2021/12/22 02:57:25;;;;;;;14.77;11.45;;;-0.80;99.90;;;;;;5041099;28;20200;-51
2021/12/22 03:05:08;;;;;;;17.17;10.75;;;-0.80;99.90;;;;;;5045306;28;20196;-51
2021/12/22 03:07:36;;;;;;;15.73;10.13;;;-0.80;99.90;;;;;;5047752;28;20247;-52
2021/12/22 03:10:17;;;;;;;13.73;10.00;;;-0.70;99.90;;;;;;5050675;28;20266;-50
2021/12/22 03:12:50;;;;;;;13.65;9.05;;;-0.70;99.90;;;;;;5043782;28;20486;-49
2021/12/22 03:15:18;;;;;;;17.05;11.30;;;-0.60;99.90;;;;;;5041538;28;20254;-49
2021/12/22 03:17:47;;;;;;;16.67;10.88;;;-0.60;99.90;;;;;;5040451;28;20204;-52
2021/12/22 03:20:15;;;;;;;15.48;9.43;;;-0.60;99.90;;;;;;5041068;28;20350;-52
2021/12/22 03:22:45;;;;;;;15.57;10.68;;;-0.60;99.90;;;;;;5040727;28;20228;-49
2021/12/22 03:25:16;;;;;;;12.60;8.98;;;-0.60;99.90;;;;;;5041435;28;20243;-51
2021/12/22 03:27:50;;;;;;;14.13;9.82;;;-0.60;99.90;;;;;;5040543;28;20197;-49
2021/12/22 03:30:21;;;;;;;14.77;10.90;;;-0.50;99.90;;;;;;5040802;28;20287;-49
2021/12/22 03:32:49;;;;;;;15.80;10.38;;;-0.60;99.90;;;;;;5041016;28;20227;-51
2021/12/22 03:35:19;;;;;;;13.13;9.18;;;-0.50;99.90;;;;;;5040845;28;20204;-50
2021/12/22 03:37:53;;;;;;;11.82;8.25;;;-0.50;99.90;;;;;;5041063;28;20209;-48
2021/12/22 03:40:22;;;;;;;10.02;7.60;;;-0.70;99.90;;;;;;5040739;28;20282;-49
2021/12/22 03:42:50;;;;;;;13.07;9.77;;;-0.70;99.90;;;;;;5041001;28;20559;-50
2021/12/22 03:45:18;;;;;;;14.32;8.38;;;-0.70;99.90;;;;;;5040801;28;20196;-48
2021/12/22 03:47:46;;;;;;;10.90;7.38;;;-0.80;99.90;;;;;;5041124;28;20379;-49
2021/12/22 03:50:15;;;;;;;13.27;9.38;;;-0.70;99.90;;;;;;5041782;28;20347;-51
2021/12/22 03:52:43;;;;;;;10.73;7.07;;;-0.80;99.90;;;;;;5042767;28;20246;-50
2021/12/22 03:55:10;;;;;;;12.68;6.93;;;-0.70;99.90;;;;;;5043331;28;20234;-53
2021/12/22 03:57:38;;;;;;;12.52;8.25;;;-0.70;99.90;;;;;;5041533;28;20270;-49
2021/12/22 04:00:10;;;;;;;14.35;7.47;;;-0.70;99.90;;;;;;5041659;28;20469;-49
2021/12/22 04:02:37;;;;;;;15.25;8.85;;;-0.60;99.90;;;;;;5041420;28;20220;-49
2021/12/22 04:05:05;;;;;;;9.70;7.80;;;-0.70;99.90;;;;;;5040776;28;20263;-50
2021/12/22 04:07:33;;;;;;;9.63;7.57;;;-0.70;99.90;;;;;;5040657;28;20228;-46
2021/12/22 04:10:08;;;;;;;11.70;6.65;;;-0.60;99.90;;;;;;5040225;28;20220;-47
2021/12/22 04:12:35;;;;;;;9.60;6.78;;;-0.60;99.90;;;;;;5040648;28;20233;-49
2021/12/22 04:15:03;;;;;;;10.00;5.65;;;-0.60;99.90;;;;;;5040214;28;20200;-48
2021/12/22 04:17:30;;;;;;;10.18;6.57;;;-0.60;99.90;;;;;;5040366;28;20200;-52
2021/12/22 04:19:57;;;;;;;7.10;5.20;;;-0.70;99.90;;;;;;5043621;28;20290;-50
2021/12/22 04:22:24;;;;;;;11.02;6.53;;;-0.70;99.90;;;;;;5042544;28;20231;-49
2021/12/22 04:24:52;;;;;;;9.02;5.75;;;-0.70;99.90;;;;;;5041340;28;20204;-46
2021/12/22 04:27:19;;;;;;;6.15;4.10;;;-0.60;99.90;;;;;;5041775;28;20205;-50
2021/12/22 04:29:46;;;;;;;6.05;4.97;;;-0.70;99.90;;;;;;5042187;28;20224;-50
2021/12/22 04:32:13;;;;;;;9.27;6.22;;;-0.70;99.90;;;;;;5042049;28;20211;-49
2021/12/22 04:34:41;;;;;;;11.75;7.07;;;-0.70;99.90;;;;;;5041612;28;20564;-50
2021/12/22 04:37:08;;;;;;;4.70;4.22;;;-0.70;99.90;;;;;;5041349;28;20262;-53
2021/12/22 04:39:35;;;;;;;8.45;4.95;;;-0.80;99.90;;;;;;5041571;28;20258;-48
2021/12/22 04:42:03;;;;;;;9.65;6.00;;;-0.80;99.90;;;;;;5041754;28;20220;-50
2021/12/22 04:44:30;;;;;;;8.80;6.15;;;-0.90;99.90;;;;;;5041089;28;20274;-50
2021/12/22 04:46:59;;;;;;;8.27;6.13;;;-0.80;99.90;;;;;;5040601;28;20255;-47
2021/12/22 04:49:27;;;;;;;7.03;4.47;;;-0.80;99.90;;;;;;5041531;28;20224;-47
2021/12/22 04:51:55;;;;;;;11.82;5.82;;;-0.90;99.90;;;;;;5041430;28;20207;-50
2021/12/22 04:56:57;;;;;;;8.77;7.32;;;-1.00;99.90;;;;;;5041415;28;20200;-48
2021/12/22 05:02:06;;;;;;;9.70;6.55;;;-1.00;99.90;;;;;;5037841;28;20236;-46
2021/12/22 05:04:33;;;;;;;6.55;5.25;;;-1.10;99.90;;;;;;5039623;28;20453;-44
2021/12/22 05:07:00;;;;;;;9.15;6.90;;;-1.10;99.90;;;;;;5039603;28;20425;-45
2021/12/22 05:09:28;;;;;;;7.10;5.88;;;-1.10;99.90;;;;;;5042540;28;20196;-45
2021/12/22 05:11:55;;;;;;;8.88;5.93;;;-1.10;99.90;;;;;;5043159;28;20266;-48
2021/12/22 05:14:22;;;;;;;6.75;5.63;;;-1.00;99.90;;;;;;5043078;28;20204;-46
2021/12/22 05:16:52;;;;;;;6.32;5.43;;;-1.00;99.90;;;;;;5043046;28;20238;-45
2021/12/22 05:19:20;;;;;;;6.63;5.35;;;-1.00;99.90;;;;;;5042965;28;20204;-46
2021/12/22 05:21:47;;;;;;;9.20;6.55;;;-0.90;99.90;;;;;;5043002;28;20227;-47
2021/12/22 05:24:14;;;;;;;7.82;5.30;;;-0.80;99.90;;;;;;5043159;28;20212;-45
2021/12/22 05:26:41;;;;;;;7.65;6.65;;;-0.80;99.90;;;;;;5043265;28;20235;-44
2021/12/22 05:29:09;;;;;;;11.55;4.90;;;-0.80;99.90;;;;;;5043056;28;20530;-47
2021/12/22 05:31:36;;;;;;;8.13;5.25;;;-0.80;99.90;;;;;;5042928;28;20224;-45
2021/12/22 05:34:03;;;;;;;6.60;5.95;;;-0.90;99.90;;;;;;5042882;28;20201;-49
2021/12/22 05:36:31;;;;;;;5.18;4.65;;;-0.90;99.90;;;;;;5042448;28;20204;-47
2021/12/22 05:38:58;;;;;;;9.32;5.97;;;-0.90;99.90;;;;;;5042916;28;20424;-46
2021/12/22 05:41:26;;;;;;;7.85;6.63;;;-0.80;99.90;;;;;;5042312;28;20228;-46
2021/12/22 05:43:53;;;;;;;7.95;6.40;;;-0.70;99.90;;;;;;5042886;28;20433;-47
2021/12/22 05:46:21;;;;;;;8.40;6.20;;;-0.60;99.90;;;;;;5042301;28;20200;-50
2021/12/22 05:48:49;;;;;;;8.95;6.45;;;-0.50;99.90;;;;;;5042687;28;20223;-44
2021/12/22 05:51:16;;;;;;;7.88;5.45;;;-0.50;99.90;;;;;;5042010;28;20217;-43
2021/12/22 05:53:43;;;;;;;7.65;5.70;;;-0.50;99.90;;;;;;5041592;28;20196;-45
2021/12/22 05:56:12;;;;;;;9.82;6.55;;;-0.50;99.90;;;;;;5041970;28;20204;-44
2021/12/22 05:58:39;;;;;;;8.98;6.50;;;-0.70;99.90;;;;;;5042266;28;20250;-46
2021/12/22 06:01:07;;;;;;;8.00;5.78;;;-0.70;99.90;;;;;;5042047;28;20266;-46
2021/12/22 06:03:34;;;;;;;12.65;7.10;;;-0.70;99.90;;;;;;5042515;28;20263;-45
2021/12/22 06:06:02;;;;;;;8.55;7.00;;;-0.60;99.90;;;;;;5042137;28;20227;-51
2021/12/22 06:08:29;;;;;;;10.98;7.55;;;-0.60;99.90;;;;;;5041826;28;20277;-51
2021/12/22 06:10:56;;;;;;;9.10;5.97;;;-0.70;99.90;;;;;;5041616;28;20216;-46
2021/12/22 06:13:23;;;;;;;10.85;7.72;;;-0.80;99.90;;;;;;5042090;28;20255;-47
2021/12/22 06:15:50;;;;;;;12.88;6.15;;;-0.90;99.90;;;;;;5041916;28;20200;-45
2021/12/22 06:18:18;;;;;;;7.88;6.43;;;-0.90;99.90;;;;;;5042369;28;20243;-47
2021/12/22 06:20:45;;;;;;;10.50;6.05;;;-0.70;99.90;;;;;;5041049;28;20232;-48
2021/12/22 06:23:13;;;;;;;8.82;6.45;;;-0.60;99.90;;;;;;5041267;28;20488;-48
2021/12/22 06:25:40;;;;;;;9.70;6.93;;;-0.60;99.90;;;;;;5041891;28;20200;-49
2021/12/22 06:28:08;;;;;;;9.50;5.88;;;-0.50;99.90;;;;;;5041422;28;20283;-46
2021/12/22 06:30:35;;;;;;;12.25;8.38;;;-0.60;99.90;;;;;;5042147;28;20228;-49
2021/12/22 06:33:02;;;;;;;12.82;7.90;;;-0.60;99.90;;;;;;5041337;28;20438;-46
2021/12/22 06:35:29;;;;;;;9.77;8.35;;;-0.50;99.90;;;;;;5041574;28;20201;-48
2021/12/22 06:37:57;;;;;;;11.48;7.60;;;-0.50;99.90;;;;;;5041069;28;20238;-44
2021/12/22 06:40:24;;;;;;;9.50;7.85;;;-0.70;99.90;;;;;;5040030;28;20456;-48
2021/12/22 06:42:52;;;;;;;10.35;7.82;;;-0.70;99.90;;;;;;5039672;28;20298;-46
2021/12/22 06:45:19;;;;;;;16.70;8.13;;;-0.70;99.90;;;;;;5041606;28;20262;-49
2021/12/22 06:47:46;;;;;;;15.38;8.65;;;-0.60;99.90;;;;;;5040903;28;20200;-49
2021/12/22 06:50:13;;;;;;;10.07;7.38;;;-0.80;99.90;;;;;;5040971;28;20216;-51
2021/12/22 06:52:41;;;;;;;11.45;6.95;;;-0.80;99.90;;;;;;5041217;28;20239;-49
2021/12/22 06:55:08;;;;;;;9.85;8.00;;;-1.00;99.90;;;;;;5040896;28;20204;-47
2021/12/22 06:57:36;;;;;;;10.65;8.73;;;-0.90;99.90;;;;;;5040819;28;20219;-45
2021/12/22 07:00:06;;;;;;;12.85;8.27;;;-0.70;99.90;;;;;;5040692;28;20273;-45
2021/12/22 07:02:37;;;;;;;9.23;7.20;;;-0.80;99.90;;;;;;5041247;28;20224;-46
2021/12/22 07:05:06;;;;;;;14.80;8.18;;;-0.70;99.90;;;;;;5040741;28;20196;-46
2021/12/22 07:07:34;;;;;;;10.10;6.68;;;-0.70;99.90;;;;;;5041790;28;20196;-48
2021/12/22 07:10:02;;;;;;;14.18;7.28;;;-0.80;99.90;;;;;;5042776;28;20220;-50
2021/12/22 07:12:30;;;;;;;9.20;6.13;;;-0.80;99.90;;;;;;5043234;28;20502;-53
2021/12/22 07:14:57;;;;;;;10.95;7.60;;;-0.70;99.90;;;;;;5041526;28;20223;-48
2021/12/22 07:17:24;;;;;;;15.00;9.10;;;-0.80;99.90;;;;;;5041555;28;20200;-46
2021/12/22 07:19:52;;;;;;;12.80;8.20;;;-0.90;99.90;;;;;;5040783;28;20224;-48
2021/12/22 07:22:19;;;;;;;11.90;6.88;;;-1.00;99.90;;;;;;5041717;28;20224;-47
2021/12/22 07:24:46;;;;;;;10.02;6.47;;;-1.00;99.90;;;;;;5040764;28;20373;-43
2021/12/22 07:27:13;;;;;;;11.57;6.50;;;-1.00;99.90;;;;;;5040092;28;20292;-48
2021/12/22 07:29:41;;;;;;;11.68;7.95;;;-1.20;99.90;;;;;;5040491;28;20402;-47
2021/12/22 07:32:08;;;;;;;10.30;6.32;;;-1.30;99.90;;;;;;5040701;28;20208;-44
2021/12/22 07:34:36;;;;;;;15.25;7.05;;;-1.20;99.90;;;;;;5040541;28;20201;-45
2021/12/22 07:37:09;;;;;;;11.38;7.75;;;-1.10;99.90;;;;;;5040333;28;20246;-45
2021/12/22 07:39:36;;;;;;;13.35;8.45;;;-0.80;99.90;;;;;;5040569;28;20200;-45
2021/12/22 07:42:03;;;;;;;10.88;7.25;;;-0.70;99.90;;;;;;5040318;28;20270;-50
2021/12/22 07:44:31;;;;;;;11.38;7.45;;;-0.90;99.90;;;;;;5040981;28;20489;-45
2021/12/22 07:46:58;;;;;;;10.52;7.15;;;-0.90;99.90;;;;;;5040092;28;20243;-47
2021/12/22 07:49:25;;;;;;;9.57;8.05;;;-1.00;99.90;;;;;;5040438;28;20569;-45
2021/12/22 07:51:52;;;;;;;11.77;9.13;;;-0.80;99.90;;;;;;5040306;28;20216;-46
2021/12/22 07:54:20;;;;;;;10.45;8.38;;;-0.70;99.90;;;;;;5040220;28;20196;-44
2021/12/22 07:56:47;;;;;;;9.73;6.60;;;-0.50;99.90;;;;;;5039503;28;20547;-49
2021/12/22 07:59:14;;;;;;;13.13;7.15;;;-0.30;99.90;;;;;;5040203;28;20455;-47
2021/12/22 08:01:42;;;;;;;11.13;7.65;;;-0.10;99.90;;;;;;5039691;28;20584;-45
2021/12/22 08:04:09;;;;;;;10.38;7.82;;;0.10;99.90;;;;;;5040368;28;20244;-47
2021/12/22 08:06:37;;;;;;;14.07;8.45;;;0.10;99.90;;;;;;5040168;28;20290;-47
2021/12/22 08:09:04;;;;;;;12.38;7.90;;;-0.40;99.90;;;;;;5040482;28;20250;-44
2021/12/22 08:11:32;;;;;;;11.68;8.15;;;-0.60;99.90;;;;;;5040597;28;20496;-49
2021/12/22 08:13:59;;;;;;;11.00;8.07;;;-0.70;99.90;;;;;;5039826;28;20569;-48
2021/12/22 08:16:30;;;;;;;12.18;7.50;;;-0.60;99.90;;;;;;5039911;28;20271;-46
2021/12/22 08:18:57;;;;;;;8.38;6.22;;;-0.60;99.90;;;;;;5039701;28;20246;-48
2021/12/22 08:21:25;;;;;;;9.68;7.30;;;-0.70;99.90;;;;;;5039938;28;20258;-50
2021/12/22 08:23:52;;;;;;;13.15;7.90;;;-0.60;99.90;;;;;;5039959;28;20282;-45
2021/12/22 08:26:20;;;;;;;13.00;7.78;;;-0.60;99.90;;;;;;5039703;28;20303;-45
2021/12/22 08:28:49;;;;;;;12.57;8.90;;;-0.80;99.90;;;;;;5039862;28;20211;-44
2021/12/22 08:31:16;;;;;;;17.83;7.97;;;-0.80;99.90;;;;;;5040328;28;20478;-44
2021/12/22 08:33:46;;;;;;;11.23;8.18;;;-0.60;99.90;;;;;;5040066;28;20200;-47
2021/12/22 08:39:05;;;;;;;17.83;7.85;;;-0.40;99.90;;;;;;5039939;28;20274;-47
2021/12/22 08:41:36;;;;;;;10.35;7.88;;;-0.30;99.90;;;;;;5040140;28;20454;-45
2021/12/22 08:44:09;;;;;;;9.73;8.60;;;0.00;99.90;;;;;;5042594;28;20561;-44
2021/12/22 08:46:39;;;;;;;9.00;6.93;;;0.20;99.90;;;;;;5044155;28;20200;-46
2021/12/22 08:49:07;;;;;;;11.13;7.88;;;0.20;99.90;;;;;;5044121;28;20235;-46
2021/12/22 08:51:36;;;;;;;10.10;6.38;;;0.40;99.90;;;;;;5044154;28;20284;-46
2021/12/22 08:54:03;;;;;;;7.28;6.38;;;0.80;99.90;;;;;;5045714;28;20510;-47
2021/12/22 08:56:32;;;;;;;8.32;6.20;;;1.20;99.90;;;;;;5043941;28;20246;-51
2021/12/22 08:58:59;;;;;;;9.40;6.95;;;1.60;99.90;;;;;;5043640;28;20205;-44
2021/12/22 09:01:28;;;;;;;9.50;6.80;;;1.60;99.90;;;;;;5044507;28;20365;-50
2021/12/22 09:03:56;;;;;;;9.70;6.47;;;1.20;99.90;;;;;;5045236;28;20244;-48
2021/12/22 09:06:23;;;;;;;13.18;6.82;;;1.40;99.90;;;;;;5046107;28;20234;-47
2021/12/22 09:08:52;;;;;;;7.75;5.88;;;1.60;99.90;;;;;;5044912;28;20242;-44
2021/12/22 09:11:20;;;;;;;9.57;6.90;;;1.60;99.90;;;;;;5044064;28;20216;-46
2021/12/22 09:13:47;;;;;;;7.50;6.20;;;1.50;99.90;;;;;;5044191;28;20238;-45
2021/12/22 09:16:15;;;;;;;10.82;6.57;;;1.60;99.90;;;;;;5042406;28;20212;-44
2021/12/22 09:18:43;;;;;;;9.63;6.80;;;1.30;99.90;;;;;;5043247;28;20251;-47
2021/12/22 09:21:12;;;;;;;11.20;6.68;;;1.50;99.90;;;;;;5043240;28;20224;-46
2021/12/22 09:23:39;;;;;;;8.90;5.50;;;1.80;99.90;;;;;;5042985;28;20269;-46
2021/12/22 09:26:07;;;;;;;9.55;4.90;;;2.30;99.90;;;;;;5042240;28;20235;-49
2021/12/22 09:28:36;;;;;;;8.48;6.53;;;2.00;99.90;;;;;;5043091;28;20383;-44
2021/12/22 09:31:05;;;;;;;9.30;4.50;;;1.60;99.90;;;;;;5042623;28;20429;-47
2021/12/22 09:33:34;;;;;;;6.25;5.45;;;1.40;99.90;;;;;;5043139;28;20208;-49
2021/12/22 09:36:05;;;;;;;8.10;6.78;;;1.50;99.90;;;;;;5041745;28;20559;-46
2021/12/22 09:38:32;;;;;;;5.93;4.90;;;1.80;99.90;;;;;;5043196;28;20206;-48
2021/12/22 09:41:00;;;;;;;6.22;5.40;;;2.10;99.90;;;;;;5042616;28;20282;-45
2021/12/22 09:43:28;;;;;;;8.07;4.80;;;2.00;99.90;;;;;;5042126;28;20224;-46
2021/12/22 09:46:04;;;;;;;6.15;4.50;;;2.00;99.90;;;;;;5042798;28;20211;-45
2021/12/22 09:48:57;;;;;;;5.10;4.57;;;2.00;99.90;;;;;;5042601;28;20200;-44
2021/12/22 09:53:54;;;;;;;6.20;5.10;;;2.20;99.90;;;;;;5041650;28;20204;-45
2021/12/22 09:56:24;;;;;;;6.53;4.82;;;2.00;99.90;;;;;;5041956;28;20201;-48
2021/12/22 09:58:52;;;;;;;6.45;5.38;;;1.80;99.90;;;;;;5042206;28;20211;-47
2021/12/22 10:01:23;;;;;;;4.65;4.15;;;1.80;99.90;;;;;;5042529;28;20474;-49
2021/12/22 10:03:53;;;;;;;5.22;4.28;;;1.70;99.90;;;;;;5041999;28;20228;-48
2021/12/22 10:06:20;;;;;;;6.47;4.85;;;1.80;99.90;;;;;;5043033;28;20215;-51
2021/12/22 10:09:02;;;;;;;5.75;4.63;;;1.70;99.90;;;;;;5044506;28;20188;-49
2021/12/22 10:11:31;;;;;;;7.40;5.15;;;2.10;99.90;;;;;;5043608;28;20283;-55
2021/12/22 10:13:59;;;;;;;8.38;4.55;;;2.00;99.90;;;;;;5043004;28;20227;-44
2021/12/22 10:16:29;;;;;;;5.68;4.82;;;1.90;99.90;;;;;;5041584;28;20267;-48
2021/12/22 10:19:06;;;;;;;5.93;4.95;;;1.80;99.90;;;;;;5041772;28;20200;-48
2021/12/22 10:21:37;;;;;;;8.13;5.10;;;1.80;99.90;;;;;;5041952;28;20557;-48
2021/12/22 10:24:06;;;;;;;5.90;4.95;;;1.80;99.90;;;;;;5041750;28;20216;-45
2021/12/22 10:26:35;;;;;;;8.82;5.95;;;1.80;99.90;;;;;;5041633;28;20391;-47
2021/12/22 10:29:07;;;;;;;8.63;6.68;;;1.90;99.90;;;;;;5041482;28;20200;-50
2021/12/22 10:31:44;;;;;;;8.43;5.93;;;1.70;99.90;;;;;;5041789;28;20220;-47
2021/12/22 10:34:17;;;;;;;7.55;5.95;;;1.70;99.90;;;;;;5041605;28;20211;-49
2021/12/22 10:36:55;;;;;;;11.52;6.90;;;2.00;99.90;;;;;;5041258;28;20247;-49
2021/12/22 10:39:30;;;;;;;6.72;4.85;;;2.10;99.90;;;;;;5040764;28;20200;-54
2021/12/22 10:42:07;;;;;;;12.60;6.70;;;2.00;99.90;;;;;;5041519;28;20230;-47
2021/12/22 10:44:42;;;;;;;7.78;5.50;;;2.00;99.90;;;;;;5041595;28;20228;-46
2021/12/22 10:47:19;;;;;;;10.25;6.47;;;2.00;99.90;;;;;;5041336;28;20196;-47
2021/12/22 10:50:06;;;;;;;13.05;7.20;;;2.10;99.90;;;;;;5041489;28;20234;-49
2021/12/22 10:52:34;;;;;;;8.55;6.28;;;1.90;99.90;;;;;;5041779;28;20200;-46
2021/12/22 10:55:08;;;;;;;7.03;5.90;;;2.00;99.90;;;;;;5041428;28;20196;-48
2021/12/22 10:57:41;;;;;;;13.32;7.45;;;1.90;99.90;;;;;;5041265;28;20196;-50
2021/12/22 11:00:27;;;;;;;10.10;7.05;;;1.90;99.90;;;;;;5062213;22;20456;-49
2021/12/22 11:03:06;;;;;;;12.15;7.40;;;2.10;99.90;;;;;;5041325;28;20553;-49
2021/12/22 11:05:49;;;;;;;10.57;6.50;;;2.10;99.90;;;;;;5040762;28;20334;-50
2021/12/22 11:08:24;;;;;;;8.38;5.82;;;2.30;99.90;;;;;;5040817;28;20197;-48
2021/12/22 11:10:52;;;;;;;11.93;6.10;;;2.50;99.90;;;;;;5040916;28;20230;-46
2021/12/22 11:13:22;;;;;;;9.45;7.15;;;2.70;99.90;;;;;;5040689;28;20204;-48
2021/12/22 11:15:51;;;;;;;9.90;6.22;;;2.60;99.90;;;;;;5040122;28;20552;-52
2021/12/22 11:18:34;;;;;;;8.70;6.32;;;2.70;99.90;;;;;;5040929;28;20200;-49
2021/12/22 11:21:30;;;;;;;10.48;7.50;;;2.10;99.90;;;;;;5040981;28;20228;-48
2021/12/22 11:23:58;;;;;;;7.70;6.05;;;1.70;99.90;;;;;;5040715;28;20631;-50
2021/12/22 11:26:26;;;;;;;6.32;5.00;;;1.50;99.90;;;;;;5040707;28;20423;-52
2021/12/22 11:28:54;;;;;;;6.60;5.13;;;1.70;99.90;;;;;;5040499;28;20204;-50
2021/12/22 11:31:23;;;;;;;6.32;5.68;;;1.80;99.90;;;;;;5040709;28;20596;-51
2021/12/22 11:33:51;;;;;;;7.18;5.05;;;1.80;99.90;;;;;;5022949;28;20212;-50
2021/12/22 11:36:18;;;;;;;9.82;6.30;;;2.20;99.90;;;;;;5040641;28;20291;-51
2021/12/22 11:38:45;;;;;;;10.63;7.40;;;2.30;99.90;;;;;;5040699;28;20203;-49
2021/12/22 11:41:17;;;;;;;8.43;6.63;;;2.60;99.90;;;;;;5022938;28;20220;-51
2021/12/22 11:43:46;;;;;;;21.25;7.82;;;2.80;99.90;;;;;;5040576;28;20271;-49
2021/12/22 11:46:14;;;;;;;13.48;7.65;;;2.70;99.90;;;;;;5041009;28;20196;-47
2021/12/22 11:48:43;;;;;;;13.48;7.45;;;2.40;99.90;;;;;;5040753;28;20196;-52
2021/12/22 11:51:22;;;;;;;7.63;6.05;;;2.40;99.90;;;;;;5040715;28;20227;-51
2021/12/22 11:53:58;;;;;;;6.00;5.32;;;2.80;99.90;;;;;;5040390;28;20206;-51
2021/12/22 11:56:42;;;;;;;9.10;6.00;;;2.90;99.90;;;;;;5040622;28;20200;-51
2021/12/22 11:59:31;;;;;;;9.75;6.38;;;2.70;99.90;;;;;;5039882;28;20223;-49
2021/12/22 12:02:29;;;;;;;10.10;7.07;;;2.40;99.90;;;;;;5040759;28;20274;-48
2021/12/22 12:05:17;;;;;;;8.30;7.40;;;2.40;99.90;;;;;;5040913;28;20231;-50
2021/12/22 12:07:55;;;;;;;11.95;6.45;;;2.60;99.90;;;;;;5024188;28;20610;-53
2021/12/22 12:10:42;;;;;;;13.43;7.20;;;2.40;99.90;;;;;;5040913;28;20255;-47
2021/12/22 12:22:05;;;;;;;10.13;7.57;;;2.60;99.90;;;;;;5040037;28;20457;-50
2021/12/22 12:24:33;;;;;;;7.90;6.30;;;2.50;99.90;;;;;;5039882;28;20537;-52
2021/12/22 12:27:22;;;;;;;9.35;6.45;;;2.50;99.90;;;;;;5039858;28;20236;-49
2021/12/22 12:30:09;;;;;;;22.33;8.90;;;2.40;99.90;;;;;;5041256;28;20522;-48
2021/12/22 12:32:39;;;;;;;10.25;7.57;;;2.40;99.90;;;;;;5040678;28;20208;-50
2021/12/22 12:35:19;;;;;;;7.13;5.40;;;2.30;99.90;;;;;;5040369;28;20510;-51
2021/12/22 12:38:16;;;;;;;15.35;7.40;;;2.30;99.90;;;;;;5040055;28;20267;-52
2021/12/22 12:40:58;;;;;;;10.57;9.02;;;2.30;99.90;;;;;;5041544;28;20515;-48
2021/12/22 12:43:51;;;;;;;10.48;6.57;;;2.40;99.90;;;;;;5042193;28;20762;-53
2021/12/22 12:46:23;;;;;;;9.32;6.90;;;2.30;99.90;;;;;;5040258;28;20207;-49
2021/12/22 12:49:02;;;;;;;10.70;7.38;;;2.30;99.90;;;;;;5040330;28;20395;-49
2021/12/22 12:51:46;;;;;;;10.48;6.60;;;2.30;99.90;;;;;;5040172;28;20337;-49
2021/12/22 12:54:16;;;;;;;7.57;5.25;;;2.30;99.90;;;;;;5040061;28;20203;-49
2021/12/22 12:56:45;;;;;;;8.10;6.18;;;2.00;99.90;;;;;;5039718;28;20533;-49
2021/12/22 12:59:18;;;;;;;10.60;8.02;;;2.10;99.90;;;;;;5022515;28;20200;-49
2021/12/22 13:01:46;;;;;;;9.55;6.10;;;2.10;99.90;;;;;;5039569;28;20434;-49
2021/12/22 13:04:31;;;;;;;12.20;6.43;;;2.10;99.90;;;;;;5039540;28;20231;-50
2021/12/22 13:07:18;;;;;;;9.95;5.90;;;2.10;99.90;;;;;;5039171;28;20263;-50
2021/12/22 13:09:46;;;;;;;10.18;6.70;;;2.20;99.90;;;;;;5042761;28;20200;-50
2021/12/22 13:13:14;;;;;;;14.25;9.02;;;2.10;99.90;;;;;;5043015;28;20431;-47
2021/12/22 13:17:58;;;;;;;7.80;5.80;;;2.00;99.90;;;;;;5038808;28;20275;-51
2021/12/22 13:20:33;;;;;;;19.00;7.95;;;1.60;99.90;;;;;;5022171;28;20263;-53
2021/12/22 13:23:10;;;;;;;9.15;5.78;;;1.40;99.90;;;;;;5039068;28;20498;-51
2021/12/22 13:25:43;;;;;;;11.05;7.57;;;1.60;99.90;;;;;;5039555;28;20204;-51
2021/12/22 13:28:41;;;;;;;8.68;5.85;;;1.70;99.90;;;;;;5038945;28;20588;-51
2021/12/22 13:31:12;;;;;;;6.82;6.05;;;1.70;99.90;;;;;;5042209;28;20554;-51
2021/12/22 13:33:44;;;;;;;8.50;6.28;;;1.50;99.90;;;;;;5043330;28;20406;-50